Nearby METAR Reports

 

ENRY - Rygge (nor-Afb), Norway
Distance from station: 0 24km
Updated: 29/11/2022 15:50
Light drizzle, Mostly cloudy
Light drizzle, Mostly cloudy
 Wind from NE
Wind: NE 9 km/h
Temperature: 3°C
Wind Chill: 0°C
Dew Point: 1°C
Humidity: 87%
Barometer: 1028 hPa
Summary: Light Drizzle
Clouds: Mostly cloudy
Visibility: 10 km
Cloud details: Partly cloudy 518 m
Mostly cloudy 1402 m
2022/11/29 14:50 ENRY 291450Z 04005KT 9999 -DZ SCT017 BKN046 03/01 Q1028
ENTO - Torp (civ/Nor-Af, Norway
Distance from station: W 29km
Updated: 29/11/2022 15:50
Overcast
Overcast
 Wind from NE
Wind: NE 11 km/h
Temperature: 3°C
Wind Chill: 0°C
Dew Point: 3°C
Humidity: 100%
Barometer: 1027 hPa
Clouds: Overcast
Visibility: 10 km
Cloud details: Overcast 244 m
2022/11/29 14:50 ENTO 291450Z 04006KT 360V080 9999 OVC008 03/03 Q1027 NOSIG
 
ENSN - Skien/Geiterygge, Norway
Distance from station: W 68km
Updated: 09/11/2015 09:50
NOT Current
Clear
Clear
 Wind from SSW
Wind: SSW 19 km/h, Gust: 41 km/h
Temperature: 7°C
Wind Chill: 4°C
Dew Point: 3°C
Humidity: 76%
Barometer: 1000 hPa
Summary: Clear
Visibility: greater than 10 km
2015/11/09 08:50 ENSN 090850Z 20010G22KT 150V240 CAVOK 07/03 Q1000